Time;durP1;ratioP1;P1;durP2;ratioP2;P2;SDS_P1;SDS_P2;PMS_P1;PMS_P2;Temp;Humidity;BMP_temperature;BMP_pressure;BME280_temperature;BME280_humidity;BME280_pressure;Samples;Min_cycle;Max_cycle;Signal;HPM_P1;HPM_P2
2021/01/19 00:01:55;;;;;;;;;;;5.20;75.40;;;;;;4971627;28;117937;-86
2021/01/19 00:04:21;;;;;;;;;;;5.20;75.30;;;;;;4970352;28;120119;-86
2021/01/19 00:06:46;;;;;;;;;;;5.20;75.40;;;;;;4970290;28;120115;-86
2021/01/19 00:09:12;;;;;;;;;;;5.20;75.30;;;;;;4970121;28;117809;-86
2021/01/19 00:11:37;;;;;;;;;;;5.20;75.30;;;;;;4971525;28;117646;-86
2021/01/19 00:14:03;;;;;;;;;;;5.20;75.30;;;;;;4970356;28;122101;-86
2021/01/19 00:16:28;;;;;;;;;;;5.20;75.20;;;;;;4970171;28;119323;-86
2021/01/19 00:18:54;;;;;;;;;;;5.20;75.20;;;;;;4970581;28;117559;-86
2021/01/19 00:21:19;;;;;;;;;;;5.20;75.30;;;;;;4971562;28;117444;-86
2021/01/19 00:23:45;;;;;;;;;;;5.20;75.20;;;;;;4970194;28;121685;-86
2021/01/19 00:26:10;;;;;;;;;;;5.20;75.20;;;;;;4970114;28;119791;-86
2021/01/19 00:28:36;;;;;;;;;;;5.20;75.20;;;;;;4970253;28;117458;-86
2021/01/19 00:31:01;;;;;;;;;;;5.20;75.20;;;;;;4970869;28;117514;-86
2021/01/19 00:33:27;;;;;;;;;;;5.20;75.20;;;;;;4969998;28;122018;-86
2021/01/19 00:35:52;;;;;;;;;;;5.20;75.80;;;;;;4970043;28;119968;-86
2021/01/19 00:38:18;;;;;;;;;;;5.20;75.20;;;;;;4970264;28;118033;-86
2021/01/19 00:40:43;;;;;;;;;;;5.20;75.20;;;;;;4971163;28;117968;-86
2021/01/19 00:43:09;;;;;;;;;;;5.20;75.20;;;;;;4969816;28;121108;-86
2021/01/19 00:45:34;;;;;;;;;;;5.20;75.20;;;;;;4986453;28;120162;-86
2021/01/19 00:48:00;;;;;;;;;;;5.20;75.20;;;;;;4970482;28;117511;-86
2021/01/19 00:50:25;;;;;;;;;;;5.20;75.10;;;;;;4987656;28;118018;-86
2021/01/19 00:52:51;;;;;;;;;;;5.20;75.10;;;;;;4969721;28;121383;-86
2021/01/19 00:55:16;;;;;;;;;;;5.20;75.20;;;;;;4969473;28;120783;-86
2021/01/19 00:57:45;;;;;;;;;;;5.20;75.20;;;;;;4970234;28;117543;-86
2021/01/19 01:00:11;;;;;;;;;;;5.20;75.20;;;;;;4970519;28;117369;-86
2021/01/19 01:02:36;;;;;;;;;;;5.20;75.20;;;;;;4986099;28;118398;-86
2021/01/19 01:05:05;;;;;;;;;;;5.20;75.20;;;;;;4969372;28;119717;-86
2021/01/19 01:07:34;;;;;;;;;;;5.20;75.20;;;;;;4969854;28;117526;-86
2021/01/19 01:10:00;;;;;;;;;;;5.20;75.20;;;;;;4970221;28;117405;-86
2021/01/19 01:12:26;;;;;;;;;;;5.20;75.20;;;;;;4969510;28;120131;-86
2021/01/19 01:14:51;;;;;;;;;;;5.20;75.20;;;;;;4969296;28;119782;-86
2021/01/19 01:17:17;;;;;;;;;;;5.20;75.20;;;;;;4969876;28;117369;-86
2021/01/19 01:19:42;;;;;;;;;;;5.20;75.10;;;;;;4970114;28;117425;-86
2021/01/19 01:22:08;;;;;;;;;;;5.20;75.20;;;;;;4969315;28;120453;-86
2021/01/19 01:24:33;;;;;;;;;;;5.20;75.10;;;;;;4968968;28;120452;-86
2021/01/19 01:26:59;;;;;;;;;;;5.20;75.10;;;;;;4986861;28;117431;-86
2021/01/19 01:29:24;;;;;;;;;;;5.20;75.20;;;;;;4969985;28;117505;-86
2021/01/19 01:31:50;;;;;;;;;;;5.20;75.10;;;;;;4968881;28;120166;-86
2021/01/19 01:34:15;;;;;;;;;;;5.20;75.10;;;;;;4969101;28;119607;-86
2021/01/19 01:36:41;;;;;;;;;;;5.20;75.10;;;;;;4969770;28;117495;-86
2021/01/19 01:39:06;;;;;;;;;;;5.20;75.10;;;;;;4969783;28;117961;-86
2021/01/19 01:41:32;;;;;;;;;;;5.20;75.10;;;;;;4968874;28;121242;-86
2021/01/19 01:43:57;;;;;;;;;;;5.20;75.10;;;;;;4968911;28;120457;-86
2021/01/19 01:46:23;;;;;;;;;;;5.20;75.10;;;;;;4969839;28;117496;-86
2021/01/19 01:48:48;;;;;;;;;;;5.20;75.10;;;;;;4969522;28;117832;-86
2021/01/19 01:51:14;;;;;;;;;;;5.20;75.10;;;;;;4968928;28;120038;-86
2021/01/19 01:53:40;;;;;;;;;;;5.20;75.10;;;;;;4985658;28;117362;-86
2021/01/19 01:56:06;;;;;;;;;;;5.20;75.20;;;;;;4969489;28;117466;-86
2021/01/19 01:58:31;;;;;;;;;;;5.20;75.10;;;;;;4986598;28;117777;-86
2021/01/19 02:00:57;;;;;;;;;;;5.20;75.10;;;;;;4969039;28;121222;-86
2021/01/19 02:03:22;;;;;;;;;;;5.20;75.10;;;;;;4985354;28;117789;-86
2021/01/19 02:05:48;;;;;;;;;;;5.20;75.10;;;;;;4969288;28;117547;-86
2021/01/19 02:08:53;;;;;;;;;;;5.20;75.10;;;;;;4969251;28;117888;-86
2021/01/19 02:11:38;;;;;;;;;;;5.20;75.10;;;;;;4886775;28;120385;-86
2021/01/19 02:14:09;;;;;;;;;;;5.20;75.10;;;;;;4886656;28;121015;-86
2021/01/19 02:16:38;;;;;;;;;;;5.20;75.10;;;;;;4949497;28;117575;-86
2021/01/19 02:19:22;;;;;;;;;;;5.20;75.10;;;;;;4986004;28;117940;-86
2021/01/19 02:21:48;;;;;;;;;;;5.20;75.10;;;;;;5002980;28;118797;-86
2021/01/19 02:24:26;;;;;;;;;;;5.20;75.10;;;;;;4985001;28;119435;-86
2021/01/19 02:26:58;;;;;;;;;;;5.20;75.20;;;;;;4969489;28;117495;-86
2021/01/19 02:29:42;;;;;;;;;;;5.20;75.10;;;;;;4985535;28;117916;-86
2021/01/19 02:32:07;;;;;;;;;;;5.20;75.00;;;;;;4984892;28;120407;-86
2021/01/19 02:34:43;;;;;;;;;;;5.20;75.00;;;;;;4984648;28;119537;-86
2021/01/19 02:37:10;;;;;;;;;;;5.20;74.90;;;;;;4968909;28;117695;-87
2021/01/19 02:39:55;;;;;;;;;;;5.20;75.00;;;;;;4969394;28;117491;-87
2021/01/19 02:42:21;;;;;;;;;;;5.20;74.80;;;;;;4984589;28;121673;-86
2021/01/19 02:44:48;;;;;;;;;;;5.20;74.80;;;;;;4968242;28;119409;-86
2021/01/19 02:47:14;;;;;;;;;;;5.10;74.70;;;;;;4969113;28;117401;-86
2021/01/19 02:49:41;;;;;;;;;;;5.10;74.70;;;;;;4969195;28;117597;-86
2021/01/19 02:52:06;;;;;;;;;;;5.20;74.70;;;;;;4968317;28;120818;-86
2021/01/19 02:54:32;;;;;;;;;;;5.10;74.70;;;;;;4967801;28;120667;-86
2021/01/19 02:57:06;;;;;;;;;;;5.20;74.60;;;;;;4968619;28;117583;-86
2021/01/19 02:59:44;;;;;;;;;;;5.10;74.30;;;;;;4985306;28;117830;-86
2021/01/19 03:02:11;;;;;;;;;;;5.10;74.40;;;;;;4984400;28;121440;-86
2021/01/19 03:04:37;;;;;;;;;;;5.20;74.40;;;;;;4984875;28;117692;-86
2021/01/19 03:07:03;;;;;;;;;;;5.10;74.40;;;;;;4968793;28;117525;-86
2021/01/19 03:09:29;;;;;;;;;;;5.10;74.50;;;;;;4967991;28;117910;-86
2021/01/19 03:11:55;;;;;;;;;;;5.20;74.50;;;;;;4966608;28;120209;-86
2021/01/19 03:14:20;;;;;;;;;;;5.10;74.50;;;;;;4966564;28;120255;-86
2021/01/19 03:16:47;;;;;;;;;;;5.10;74.40;;;;;;4967472;28;117895;-86
2021/01/19 03:19:12;;;;;;;;;;;5.10;74.50;;;;;;4967679;28;117899;-86
2021/01/19 03:21:37;;;;;;;;;;;5.20;74.50;;;;;;4966554;28;121484;-86
2021/01/19 03:24:03;;;;;;;;;;;5.20;74.50;;;;;;4983217;28;118068;-86
2021/01/19 03:26:29;;;;;;;;;;;5.10;74.50;;;;;;4970518;28;117559;-86
2021/01/19 03:28:54;;;;;;;;;;;5.20;74.60;;;;;;4970921;28;117823;-86
2021/01/19 03:31:20;;;;;;;;;;;5.20;74.50;;;;;;4969683;28;121572;-86
2021/01/19 03:33:45;;;;;;;;;;;5.20;74.50;;;;;;4969681;28;120440;-86
2021/01/19 03:36:10;;;;;;;;;;;5.20;74.50;;;;;;4970399;28;117473;-86
2021/01/19 03:38:36;;;;;;;;;;;5.20;74.50;;;;;;4970850;28;117920;-86
2021/01/19 03:41:02;;;;;;;;;;;5.20;74.50;;;;;;4969743;28;119913;-86
2021/01/19 03:43:28;;;;;;;;;;;5.20;74.50;;;;;;4969688;28;120325;-86
2021/01/19 03:45:53;;;;;;;;;;;5.20;74.50;;;;;;4970170;28;117876;-86
2021/01/19 03:48:19;;;;;;;;;;;5.20;74.50;;;;;;4987423;28;117885;-86
2021/01/19 03:50:44;;;;;;;;;;;5.20;74.50;;;;;;4969394;28;119763;-86
2021/01/19 03:53:10;;;;;;;;;;;5.20;74.50;;;;;;4969485;28;120783;-86
2021/01/19 03:55:35;;;;;;;;;;;5.20;74.60;;;;;;4970207;28;117799;-86
2021/01/19 03:58:01;;;;;;;;;;;5.20;74.60;;;;;;4970390;28;117410;-86
2021/01/19 04:00:26;;;;;;;;;;;5.20;74.50;;;;;;4969322;28;120886;-86
2021/01/19 04:02:52;;;;;;;;;;;5.20;74.50;;;;;;4969414;28;119396;-86
2021/01/19 04:05:17;;;;;;;;;;;5.20;74.60;;;;;;4969880;28;117752;-86
2021/01/19 04:07:43;;;;;;;;;;;5.20;74.50;;;;;;4970207;28;117317;-86
2021/01/19 04:13:32;;;;;;;;;;;5.20;74.60;;;;;;5004590;28;117621;-88
2021/01/19 04:16:39;;;;;;;;;;;5.20;74.50;;;;;;4970084;28;117793;-88
2021/01/19 04:19:36;;;;;;;;;;;5.20;74.50;;;;;;4988525;28;117817;-88
2021/01/19 04:25:32;;;;;;;;;;;5.20;74.50;;;;;;5004345;28;117380;-88
2021/01/19 04:28:34;;;;;;;;;;;5.20;74.60;;;;;;5002603;28;117283;-88
2021/01/19 04:31:12;;;;;;;;;;;5.20;74.60;;;;;;4959568;28;119059;-88
2021/01/19 04:33:39;;;;;;;;;;;5.20;74.50;;;;;;4971927;28;118424;-88
2021/01/19 04:36:07;;;;;;;;;;;5.20;74.50;;;;;;4969795;28;117928;-88
2021/01/19 04:38:41;;;;;;;;;;;5.20;74.50;;;;;;4997302;28;117631;-88
2021/01/19 04:41:14;;;;;;;;;;;5.20;74.50;;;;;;4941360;28;117858;-88
2021/01/19 04:44:08;;;;;;;;;;;5.20;74.50;;;;;;4984740;28;118869;-88
2021/01/19 04:50:10;;;;;;;;;;;5.20;74.50;;;;;;5004615;28;117702;-88
2021/01/19 04:53:23;;;;;;;;;;;5.20;74.50;;;;;;4982042;28;118018;-88
2021/01/19 04:55:56;;;;;;;;;;;5.20;74.40;;;;;;4990549;28;118435;-88
2021/01/19 04:58:37;;;;;;;;;;;5.20;74.40;;;;;;5000850;28;117402;-88
2021/01/19 05:01:24;;;;;;;;;;;5.20;74.40;;;;;;4935230;28;117613;-88
2021/01/19 05:04:31;;;;;;;;;;;5.20;74.40;;;;;;4982106;28;118055;-88
2021/01/19 05:07:16;;;;;;;;;;;5.20;74.40;;;;;;4952136;28;118926;-88
2021/01/19 05:10:11;;;;;;;;;;;5.20;74.40;;;;;;4984502;28;117655;-88
2021/01/19 05:13:05;;;;;;;;;;;5.20;74.50;;;;;;4985676;28;117578;-88
2021/01/19 05:19:04;;;;;;;;;;;5.20;74.40;;;;;;4941424;28;117783;-88
2021/01/19 05:25:30;;;;;;;;;;;5.20;74.40;;;;;;4962405;28;117682;-88
2021/01/19 05:28:41;;;;;;;;;;;5.20;74.30;;;;;;4866013;28;117734;-88
2021/01/19 05:37:36;;;;;;;;;;;5.20;74.30;;;;;;4865306;28;117819;-88
2021/01/19 05:40:05;;;;;;;;;;;5.20;74.30;;;;;;4866069;28;117842;-88
2021/01/19 05:46:00;;;;;;;;;;;5.20;74.30;;;;;;4846410;29;117332;-88
2021/01/19 05:49:07;;;;;;;;;;;5.20;74.30;;;;;;4900966;28;118003;-88
2021/01/19 05:54:55;;;;;;;;;;;5.20;74.30;;;;;;4921914;28;118198;-88
2021/01/19 05:57:42;;;;;;;;;;;5.20;74.20;;;;;;4920053;28;117825;-88
2021/01/19 06:03:41;;;;;;;;;;;5.20;74.30;;;;;;4962238;28;117501;-88
2021/01/19 06:06:49;;;;;;;;;;;5.20;74.30;;;;;;4941436;28;117641;-88
2021/01/19 06:09:59;;;;;;;;;;;5.20;74.20;;;;;;4920782;28;117723;-88
2021/01/19 06:15:53;;;;;;;;;;;5.20;74.20;;;;;;4917565;28;117864;-88
2021/01/19 06:21:54;;;;;;;;;;;5.20;74.20;;;;;;4913682;28;117687;-88
2021/01/19 06:24:34;;;;;;;;;;;5.20;74.20;;;;;;4969425;28;117616;-88
2021/01/19 06:27:04;;;;;;;;;;;5.20;74.20;;;;;;4986316;28;117830;-88
2021/01/19 06:29:32;;;;;;;;;;;5.20;74.10;;;;;;4984554;28;118360;-88
2021/01/19 06:32:04;;;;;;;;;;;5.20;74.80;;;;;;4968240;28;119805;-88
2021/01/19 06:34:48;;;;;;;;;;;5.20;74.20;;;;;;4987220;28;117732;-88
2021/01/19 06:37:49;;;;;;;;;;;5.20;74.10;;;;;;4957954;28;117733;-88
2021/01/19 06:40:37;;;;;;;;;;;5.20;74.10;;;;;;4989341;28;118809;-88
2021/01/19 06:43:34;;;;;;;;;;;5.20;74.20;;;;;;4986159;28;117627;-88
2021/01/19 06:46:19;;;;;;;;;;;5.20;74.10;;;;;;4999846;28;117515;-88
2021/01/19 06:48:58;;;;;;;;;;;5.20;74.10;;;;;;4997718;28;117374;-88
2021/01/19 06:51:30;;;;;;;;;;;5.20;74.10;;;;;;5001241;28;117641;-88
2021/01/19 06:54:34;;;;;;;;;;;5.20;74.10;;;;;;5001998;28;118144;-88
2021/01/19 06:57:44;;;;;;;;;;;5.20;74.10;;;;;;4904547;28;117555;-88
2021/01/19 07:07:12;;;;;;;;;;;5.20;74.00;;;;;;4964108;28;117793;-88
2021/01/19 07:10:17;;;;;;;;;;;5.20;73.90;;;;;;4943810;28;117855;-88
2021/01/19 07:13:10;;;;;;;;;;;5.20;74.00;;;;;;4925516;28;118210;-88
2021/01/19 07:16:02;;;;;;;;;;;5.20;74.00;;;;;;4924747;28;118007;-88
2021/01/19 07:18:48;;;;;;;;;;;5.20;73.90;;;;;;4908265;28;117752;-88
2021/01/19 07:27:56;;;;;;;;;;;5.20;73.90;;;;;;4922581;28;117851;-87
2021/01/19 07:31:04;;;;;;;;;;;5.20;73.90;;;;;;4893449;28;117779;-89
2021/01/19 12:42:07;;;;;;;;;;;5.30;73.60;;;;;;5022714;27;117526;-88
2021/01/19 12:45:11;;;;;;;;;;;5.30;73.60;;;;;;4960975;28;117691;-87
2021/01/19 12:48:03;;;;;;;;;;;5.30;73.60;;;;;;4961573;28;117955;-87
2021/01/19 12:50:32;;;;;;;;;;;5.30;73.70;;;;;;4961998;28;117608;-87
2021/01/19 12:56:16;;;;;;;;;;;5.30;73.70;;;;;;4903014;28;118074;-88
2021/01/19 12:59:00;;;;;;;;;;;5.30;73.70;;;;;;4887714;28;117732;-87
2021/01/19 13:01:30;;;;;;;;;;;5.20;73.60;;;;;;4932110;28;117784;-87
2021/01/19 13:03:59;;;;;;;;;;;5.30;73.70;;;;;;5003081;28;117296;-88
2021/01/19 13:06:32;;;;;;;;;;;5.30;73.80;;;;;;4989165;28;118824;-88
2021/01/19 13:09:08;;;;;;;;;;;5.30;73.80;;;;;;5005690;28;118086;-87
2021/01/19 13:25:07;;;;;;;;;;;5.30;73.70;;;;;;4828247;29;117798;-88
2021/01/19 13:27:36;;;;;;;;;;;5.30;73.70;;;;;;4800962;28;118045;-88
2021/01/19 13:30:20;;;;;;;;;;;5.30;73.70;;;;;;4852755;28;117809;-88
2021/01/19 13:32:46;;;;;;;;;;;5.30;73.80;;;;;;4926048;28;119482;-88
2021/01/19 13:35:13;;;;;;;;;;;5.30;73.80;;;;;;4929721;28;117652;-88
2021/01/19 13:37:38;;;;;;;;;;;5.30;73.80;;;;;;4930664;28;117372;-88
2021/01/19 13:40:04;;;;;;;;;;;5.30;73.70;;;;;;4988651;28;120189;-88
2021/01/19 13:42:30;;;;;;;;;;;5.30;73.80;;;;;;4988859;28;119600;-87
2021/01/19 13:44:55;;;;;;;;;;;5.30;73.80;;;;;;4989278;28;117706;-87
2021/01/19 13:47:21;;;;;;;;;;;5.30;74.40;;;;;;4989921;28;117590;-86
2021/01/19 13:49:46;;;;;;;;;;;5.30;73.80;;;;;;4988229;28;121360;-87
2021/01/19 13:52:12;;;;;;;;;;;5.30;73.90;;;;;;4988445;28;119384;-87
2021/01/19 13:54:37;;;;;;;;;;;5.30;73.80;;;;;;4989493;28;117651;-87
2021/01/19 13:57:03;;;;;;;;;;;5.30;73.90;;;;;;4989726;28;117740;-87
2021/01/19 13:59:29;;;;;;;;;;;5.30;73.90;;;;;;4988212;28;120983;-87
2021/01/19 14:01:54;;;;;;;;;;;5.30;73.90;;;;;;4988141;28;120341;-87
2021/01/19 14:04:20;;;;;;;;;;;5.30;74.00;;;;;;4988833;28;117256;-87
2021/01/19 14:06:45;;;;;;;;;;;5.30;73.90;;;;;;4989589;28;117261;-87
2021/01/19 14:09:11;;;;;;;;;;;5.30;74.10;;;;;;4986979;28;119778;-87
2021/01/19 14:11:36;;;;;;;;;;;5.30;74.10;;;;;;4988328;28;119400;-87
2021/01/19 14:14:05;;;;;;;;;;;5.30;74.20;;;;;;4988825;28;117511;-87
2021/01/19 14:16:31;;;;;;;;;;;5.30;74.30;;;;;;4989849;28;117493;-87
2021/01/19 14:18:56;;;;;;;;;;;5.30;74.40;;;;;;4988189;28;121503;-87
2021/01/19 14:21:22;;;;;;;;;;;5.30;74.40;;;;;;4988301;28;119272;-87
2021/01/19 14:23:48;;;;;;;;;;;5.20;74.40;;;;;;4988885;28;117464;-87
2021/01/19 14:26:20;;;;;;;;;;;5.20;74.50;;;;;;4989330;28;117973;-87
2021/01/19 14:28:45;;;;;;;;;;;5.20;74.60;;;;;;4987924;28;121693;-87
2021/01/19 14:31:11;;;;;;;;;;;5.20;74.60;;;;;;4987761;28;120319;-86
2021/01/19 14:33:36;;;;;;;;;;;5.30;74.70;;;;;;4988459;28;117700;-87
2021/01/19 14:36:02;;;;;;;;;;;5.20;74.70;;;;;;4989048;28;117705;-86
2021/01/19 14:38:27;;;;;;;;;;;5.20;74.70;;;;;;4987961;28;120388;-87
2021/01/19 14:40:53;;;;;;;;;;;5.20;74.80;;;;;;4987599;28;120445;-86
2021/01/19 14:43:18;;;;;;;;;;;5.20;74.80;;;;;;4988825;28;117532;-87
2021/01/19 14:45:44;;;;;;;;;;;5.20;75.00;;;;;;4989139;28;117447;-87
2021/01/19 14:48:09;;;;;;;;;;;5.20;75.00;;;;;;4987236;28;121297;-88
2021/01/19 14:50:35;;;;;;;;;;;5.20;75.00;;;;;;4987401;28;119465;-87
2021/01/19 14:53:00;;;;;;;;;;;5.20;75.00;;;;;;4988603;28;117536;-87
2021/01/19 14:55:26;;;;;;;;;;;5.20;75.10;;;;;;4988937;28;117213;-87
2021/01/19 14:57:51;;;;;;;;;;;5.20;75.10;;;;;;4987610;28;119703;-87
2021/01/19 15:00:17;;;;;;;;;;;5.20;75.00;;;;;;4987579;28;119532;-87
2021/01/19 15:02:43;;;;;;;;;;;5.20;75.10;;;;;;5004876;28;117361;-87
2021/01/19 15:05:08;;;;;;;;;;;5.20;75.10;;;;;;4988654;28;117883;-87
2021/01/19 15:07:34;;;;;;;;;;;5.20;75.20;;;;;;4987770;28;121520;-87
2021/01/19 15:10:00;;;;;;;;;;;5.20;75.20;;;;;;4987103;28;120411;-87
2021/01/19 15:12:29;;;;;;;;;;;5.20;75.20;;;;;;4988140;28;117648;-87
2021/01/19 15:14:55;;;;;;;;;;;5.20;75.10;;;;;;4988662;28;117925;-87
2021/01/19 15:17:20;;;;;;;;;;;5.30;75.10;;;;;;4987254;28;120123;-88
2021/01/19 15:19:46;;;;;;;;;;;5.30;75.20;;;;;;4988056;28;120159;-87
2021/01/19 15:22:17;;;;;;;;;;;5.20;75.10;;;;;;4991267;28;117656;-87
2021/01/19 15:24:43;;;;;;;;;;;5.30;75.20;;;;;;4992382;28;117651;-87
2021/01/19 15:27:09;;;;;;;;;;;5.30;75.30;;;;;;4990516;28;121106;-87
2021/01/19 15:29:34;;;;;;;;;;;5.20;75.30;;;;;;4990824;28;119596;-87
2021/01/19 15:32:00;;;;;;;;;;;5.30;75.40;;;;;;4991480;28;117531;-87
2021/01/19 15:34:28;;;;;;;;;;;5.20;75.40;;;;;;5008873;28;117810;-87
2021/01/19 15:36:54;;;;;;;;;;;5.30;75.40;;;;;;4990992;28;120673;-87
2021/01/19 15:39:23;;;;;;;;;;;5.30;75.40;;;;;;4990101;28;119444;-87
2021/01/19 15:41:51;;;;;;;;;;;5.30;75.50;;;;;;4991423;28;118488;-87
2021/01/19 15:44:17;;;;;;;;;;;5.30;75.60;;;;;;4991683;28;117596;-87
2021/01/19 15:46:42;;;;;;;;;;;5.20;75.50;;;;;;4990547;28;120363;-87
2021/01/19 15:49:09;;;;;;;;;;;5.20;75.50;;;;;;4989773;28;119000;-88
2021/01/19 15:51:34;;;;;;;;;;;5.20;75.50;;;;;;4991229;28;117324;-87
2021/01/19 15:54:00;;;;;;;;;;;5.30;75.60;;;;;;4991584;28;117488;-87
2021/01/19 15:56:32;;;;;;;;;;;5.30;75.50;;;;;;4990514;28;120384;-87
2021/01/19 15:58:58;;;;;;;;;;;5.30;75.50;;;;;;4990337;28;119348;-88
2021/01/19 16:01:24;;;;;;;;;;;5.30;75.60;;;;;;4990744;28;117620;-88
2021/01/19 16:03:50;;;;;;;;;;;5.30;75.50;;;;;;4991359;28;117847;-87
2021/01/19 16:06:15;;;;;;;;;;;5.30;75.40;;;;;;5007113;28;117647;-88
2021/01/19 16:08:41;;;;;;;;;;;5.20;75.40;;;;;;4989997;28;120364;-87
2021/01/19 16:11:06;;;;;;;;;;;5.30;75.60;;;;;;4991305;28;117498;-87
2021/01/19 16:13:33;;;;;;;;;;;5.30;75.60;;;;;;4991396;28;117902;-87
2021/01/19 16:15:59;;;;;;;;;;;5.30;75.60;;;;;;4990383;28;122049;-88
2021/01/19 16:18:27;;;;;;;;;;;5.30;75.60;;;;;;4990338;28;119551;-88
2021/01/19 16:20:52;;;;;;;;;;;5.30;75.60;;;;;;4991016;28;117363;-88
2021/01/19 16:23:18;;;;;;;;;;;5.30;75.60;;;;;;4991011;28;117845;-88
2021/01/19 16:25:46;;;;;;;;;;;5.30;75.60;;;;;;4989849;28;121227;-88
2021/01/19 16:28:15;;;;;;;;;;;5.30;75.60;;;;;;4989733;28;118975;-88
2021/01/19 16:30:42;;;;;;;;;;;5.30;75.60;;;;;;4989683;27;117435;-88
2021/01/19 16:33:08;;;;;;;;;;;5.30;75.50;;;;;;4990664;28;117344;-88
2021/01/19 16:35:33;;;;;;;;;;;5.30;75.40;;;;;;4989548;28;120945;-88
2021/01/19 16:37:59;;;;;;;;;;;5.30;75.60;;;;;;4989717;28;120005;-88
2021/01/19 16:40:25;;;;;;;;;;;5.30;75.60;;;;;;4990265;28;117735;-87
2021/01/19 16:42:50;;;;;;;;;;;5.30;75.60;;;;;;4990739;28;117539;-88
2021/01/19 16:45:16;;;;;;;;;;;5.30;75.50;;;;;;4989748;28;120355;-88
2021/01/19 16:47:45;;;;;;;;;;;5.30;75.40;;;;;;4989649;28;119269;-88
2021/01/19 16:50:13;;;;;;;;;;;5.30;75.20;;;;;;4989972;28;117607;-88
2021/01/19 16:52:39;;;;;;;;;;;5.30;75.20;;;;;;4990323;28;117777;-88
2021/01/19 16:55:05;;;;;;;;;;;5.30;75.30;;;;;;4989493;28;120950;-88
2021/01/19 16:57:31;;;;;;;;;;;5.30;75.20;;;;;;4989377;28;119155;-88
2021/01/19 16:59:57;;;;;;;;;;;5.30;75.30;;;;;;4989905;28;117712;-88
2021/01/19 17:02:22;;;;;;;;;;;5.30;75.30;;;;;;4990500;28;117812;-88
2021/01/19 17:04:48;;;;;;;;;;;5.30;75.50;;;;;;4989125;28;120992;-88
2021/01/19 17:07:13;;;;;;;;;;;5.30;75.60;;;;;;4989047;28;119283;-88
2021/01/19 17:09:39;;;;;;;;;;;5.30;76.20;;;;;;4989708;28;117791;-88
2021/01/19 17:12:04;;;;;;;;;;;5.30;75.70;;;;;;4990365;28;117547;-88
2021/01/19 17:14:30;;;;;;;;;;;5.30;75.60;;;;;;4989289;28;120244;-88
2021/01/19 17:16:56;;;;;;;;;;;5.30;75.70;;;;;;4988827;28;119190;-88
2021/01/19 17:19:25;;;;;;;;;;;5.30;75.80;;;;;;4989404;28;119214;-88
2021/01/19 17:21:50;;;;;;;;;;;5.30;75.90;;;;;;4990544;28;117820;-88
2021/01/19 17:24:16;;;;;;;;;;;5.30;76.00;;;;;;4988904;28;120168;-88
2021/01/19 17:26:42;;;;;;;;;;;5.30;75.90;;;;;;4988945;28;120434;-88
2021/01/19 17:29:08;;;;;;;;;;;5.30;76.00;;;;;;4989392;28;117897;-88
2021/01/19 17:31:43;;;;;;;;;;;5.30;76.00;;;;;;4989891;28;117598;-88
2021/01/19 17:34:09;;;;;;;;;;;5.30;75.90;;;;;;4988823;28;120997;-88
2021/01/19 17:36:35;;;;;;;;;;;5.30;76.10;;;;;;4988889;28;119460;-88
2021/01/19 17:39:03;;;;;;;;;;;5.30;75.90;;;;;;4989231;28;117309;-88
2021/01/19 17:41:32;;;;;;;;;;;5.30;76.00;;;;;;4989605;28;117888;-88
2021/01/19 17:43:58;;;;;;;;;;;5.30;75.90;;;;;;4987411;28;120079;-88
2021/01/19 17:46:24;;;;;;;;;;;5.40;75.90;;;;;;4988543;28;120946;-88
2021/01/19 17:48:50;;;;;;;;;;;5.30;75.90;;;;;;4988760;28;117701;-88
2021/01/19 17:51:19;;;;;;;;;;;5.30;75.90;;;;;;4989563;28;117790;-88
2021/01/19 17:53:45;;;;;;;;;;;5.30;75.90;;;;;;4988790;28;120327;-88
2021/01/19 17:56:12;;;;;;;;;;;5.30;75.80;;;;;;4988385;28;120417;-88
2021/01/19 17:58:42;;;;;;;;;;;5.30;75.80;;;;;;4989422;28;117630;-89
2021/01/19 18:01:08;;;;;;;;;;;5.30;75.80;;;;;;4989811;28;117324;-89
2021/01/19 18:03:34;;;;;;;;;;;5.30;75.80;;;;;;4988188;28;120636;-89
2021/01/19 18:05:59;;;;;;;;;;;5.30;75.70;;;;;;4988420;28;120212;-89
2021/01/19 18:08:25;;;;;;;;;;;5.40;75.60;;;;;;4989091;28;117647;-89
2021/01/19 18:10:50;;;;;;;;;;;5.40;75.60;;;;;;4989175;28;117727;-89
2021/01/19 18:13:16;;;;;;;;;;;5.40;75.50;;;;;;4988206;28;119831;-89
2021/01/19 18:15:41;;;;;;;;;;;5.40;75.50;;;;;;4988177;28;119351;-89
2021/01/19 18:18:07;;;;;;;;;;;5.40;75.40;;;;;;4988715;28;117574;-89
2021/01/19 18:20:33;;;;;;;;;;;5.40;75.40;;;;;;4989122;28;117496;-89
2021/01/19 18:22:59;;;;;;;;;;;5.40;75.30;;;;;;4988439;28;121487;-89
2021/01/19 18:25:25;;;;;;;;;;;5.40;75.30;;;;;;4988018;28;119999;-89
2021/01/19 18:27:50;;;;;;;;;;;5.40;75.30;;;;;;4988638;28;117428;-89
2021/01/19 18:30:16;;;;;;;;;;;5.40;75.30;;;;;;4988847;28;117375;-89
2021/01/19 18:32:42;;;;;;;;;;;5.40;75.30;;;;;;4987661;28;121456;-89
2021/01/19 18:35:09;;;;;;;;;;;5.40;75.30;;;;;;4988102;28;120880;-89
2021/01/19 18:37:34;;;;;;;;;;;5.40;75.30;;;;;;4988759;28;117439;-89
2021/01/19 18:40:00;;;;;;;;;;;5.40;75.30;;;;;;4988975;28;117418;-89
2021/01/19 18:42:25;;;;;;;;;;;5.40;75.20;;;;;;4987717;28;120738;-89
2021/01/19 18:44:51;;;;;;;;;;;5.40;75.20;;;;;;4988016;28;120835;-89
2021/01/19 18:47:20;;;;;;;;;;;5.40;75.20;;;;;;4988682;28;117530;-89
2021/01/19 18:49:46;;;;;;;;;;;5.40;75.10;;;;;;4988798;28;117357;-89
2021/01/19 18:52:11;;;;;;;;;;;5.40;75.20;;;;;;4987633;28;120029;-89
2021/01/19 18:54:37;;;;;;;;;;;5.40;75.20;;;;;;4988491;28;120040;-89
2021/01/19 18:57:03;;;;;;;;;;;5.40;75.80;;;;;;4991823;28;117435;-89
2021/01/19 18:59:29;;;;;;;;;;;5.40;75.20;;;;;;4992230;28;117409;-89
2021/01/19 19:01:55;;;;;;;;;;;5.40;75.30;;;;;;4991098;28;121105;-90
2021/01/19 19:04:20;;;;;;;;;;;5.40;75.30;;;;;;4991439;28;120431;-90
2021/01/19 19:06:46;;;;;;;;;;;5.40;75.30;;;;;;4991878;28;117524;-90
2021/01/19 19:09:11;;;;;;;;;;;5.40;75.30;;;;;;4991919;28;117622;-89
2021/01/19 19:11:37;;;;;;;;;;;5.40;75.30;;;;;;4991258;28;120320;-90
2021/01/19 19:14:03;;;;;;;;;;;5.40;75.30;;;;;;4991258;28;119176;-90
2021/01/19 19:16:29;;;;;;;;;;;5.40;75.30;;;;;;4991366;28;117841;-90
2021/01/19 19:18:55;;;;;;;;;;;5.40;75.30;;;;;;4992072;28;117927;-90
2021/01/19 19:21:20;;;;;;;;;;;5.40;75.30;;;;;;4990710;28;120191;-90
2021/01/19 19:23:46;;;;;;;;;;;5.40;75.30;;;;;;4990761;28;120461;-90
2021/01/19 19:26:11;;;;;;;;;;;5.40;75.30;;;;;;4991453;28;117292;-90
2021/01/19 19:28:37;;;;;;;;;;;5.40;75.30;;;;;;4992106;28;117350;-90
2021/01/19 19:31:03;;;;;;;;;;;5.40;75.40;;;;;;4990438;28;121286;-90
2021/01/19 19:33:29;;;;;;;;;;;5.40;75.30;;;;;;4990622;28;119421;-90
2021/01/19 19:35:54;;;;;;;;;;;5.40;75.40;;;;;;4991536;28;117565;-90
2021/01/19 19:38:20;;;;;;;;;;;5.40;75.40;;;;;;5008725;28;117745;-90
2021/01/19 19:40:45;;;;;;;;;;;5.40;75.40;;;;;;4990248;28;120199;-90
2021/01/19 19:43:14;;;;;;;;;;;5.40;75.40;;;;;;4990389;28;120365;-90
2021/01/19 19:45:40;;;;;;;;;;;5.40;75.40;;;;;;4991474;28;117547;-90
2021/01/19 19:48:05;;;;;;;;;;;5.40;75.30;;;;;;4991639;28;117511;-90
2021/01/19 19:50:31;;;;;;;;;;;5.40;75.40;;;;;;4990142;28;120382;-90
2021/01/19 19:52:56;;;;;;;;;;;5.40;75.40;;;;;;4990326;28;119488;-90
2021/01/19 19:55:22;;;;;;;;;;;5.40;75.40;;;;;;4990887;28;117684;-90
2021/01/19 19:57:48;;;;;;;;;;;5.40;75.40;;;;;;4991839;28;117446;-90
2021/01/19 20:00:13;;;;;;;;;;;5.40;75.50;;;;;;4990528;28;121129;-90
2021/01/19 20:02:39;;;;;;;;;;;5.40;75.50;;;;;;4990150;28;120704;-90
2021/01/19 20:05:05;;;;;;;;;;;5.40;75.40;;;;;;4990934;28;117374;-90
2021/01/19 20:07:30;;;;;;;;;;;5.40;75.40;;;;;;4990330;28;117789;-90
2021/01/19 20:09:56;;;;;;;;;;;5.40;75.40;;;;;;4989871;28;121631;-90
2021/01/19 20:12:21;;;;;;;;;;;5.40;75.50;;;;;;4990039;28;120196;-90
2021/01/19 20:14:47;;;;;;;;;;;5.40;75.50;;;;;;4990810;28;117564;-90
2021/01/19 20:17:12;;;;;;;;;;;5.40;75.40;;;;;;4991139;28;117498;-90
2021/01/19 20:19:38;;;;;;;;;;;5.40;75.40;;;;;;4989891;28;120382;-90
2021/01/19 20:22:03;;;;;;;;;;;5.40;75.50;;;;;;4989955;28;119336;-90
2021/01/19 20:24:29;;;;;;;;;;;5.40;75.40;;;;;;4990738;28;117539;-90
2021/01/19 20:26:54;;;;;;;;;;;5.40;75.50;;;;;;4991255;28;117827;-90
2021/01/19 20:29:20;;;;;;;;;;;5.40;75.50;;;;;;4989584;28;121202;-90
2021/01/19 20:31:45;;;;;;;;;;;5.40;75.50;;;;;;4989588;28;119251;-90
2021/01/19 20:34:11;;;;;;;;;;;5.40;75.40;;;;;;4990378;28;117556;-90
2021/01/19 20:36:40;;;;;;;;;;;5.40;75.50;;;;;;4990952;28;117707;-90
2021/01/19 20:39:06;;;;;;;;;;;5.40;75.40;;;;;;4990074;28;121238;-90
2021/01/19 20:41:32;;;;;;;;;;;5.40;75.40;;;;;;4989659;28;119325;-90
2021/01/19 20:43:57;;;;;;;;;;;5.40;75.40;;;;;;4990273;28;117695;-90
2021/01/19 20:46:23;;;;;;;;;;;5.40;75.50;;;;;;4990854;28;117788;-90
2021/01/19 20:48:48;;;;;;;;;;;5.40;75.40;;;;;;4989166;28;121208;-90
2021/01/19 20:51:14;;;;;;;;;;;5.40;75.50;;;;;;4989339;28;119362;-91